createdAt,value
2017-10-17T00:01:12.148Z,20.77
2017-10-17T00:03:39.675Z,21.60
2017-10-17T00:06:07.292Z,19.70
2017-10-17T00:08:34.837Z,19.90
2017-10-17T00:11:03.324Z,19.13
2017-10-17T00:13:30.829Z,20.27
2017-10-17T00:15:58.343Z,20.63
2017-10-17T00:18:25.906Z,20.80
2017-10-17T00:20:53.468Z,19.63
2017-10-17T00:23:21.043Z,20.10
2017-10-17T00:25:48.605Z,19.00
2017-10-17T00:28:16.174Z,19.50
2017-10-17T00:30:44.486Z,18.70
2017-10-17T00:33:14.691Z,21.80
2017-10-17T00:35:43.135Z,20.67
2017-10-17T00:38:10.671Z,20.60
2017-10-17T00:40:39.986Z,19.27
2017-10-17T00:43:07.553Z,19.03
2017-10-17T00:45:35.075Z,19.20
2017-10-17T00:48:02.754Z,18.90
2017-10-17T00:50:31.057Z,18.53
2017-10-17T00:53:02.719Z,18.60
2017-10-17T00:55:30.357Z,18.23
2017-10-17T00:57:57.902Z,19.20
2017-10-17T01:00:25.565Z,19.57
2017-10-17T01:02:53.111Z,17.53
2017-10-17T01:05:21.474Z,17.77
2017-10-17T01:07:48.999Z,18.50
2017-10-17T01:10:16.595Z,18.20
2017-10-17T01:12:45.052Z,18.00
2017-10-17T01:15:12.586Z,19.10
2017-10-17T01:17:41.803Z,16.20
2017-10-17T01:20:10.099Z,17.10
2017-10-17T01:22:37.778Z,16.90
2017-10-17T01:25:06.173Z,15.70
2017-10-17T01:27:34.523Z,16.73
2017-10-17T01:30:02.108Z,17.00
2017-10-17T01:32:29.691Z,16.30
2017-10-17T01:34:57.213Z,17.20
2017-10-17T01:37:24.760Z,16.23
2017-10-17T01:39:55.983Z,16.93
2017-10-17T01:42:34.241Z,16.67
2017-10-17T01:45:03.714Z,16.90
2017-10-17T01:47:32.067Z,17.07
2017-10-17T01:50:05.639Z,17.70
2017-10-17T01:52:37.764Z,17.70
2017-10-17T01:55:05.464Z,16.17
2017-10-17T01:57:34.475Z,17.90
2017-10-17T02:00:04.077Z,18.13
2017-10-17T02:02:31.690Z,19.33
2017-10-17T02:05:02.241Z,18.40
2017-10-17T02:07:29.825Z,18.37
2017-10-17T02:09:59.256Z,19.17
2017-10-17T02:12:26.763Z,18.30
2017-10-17T02:14:54.332Z,18.40
2017-10-17T02:17:26.352Z,17.37
2017-10-17T02:19:53.933Z,18.67
2017-10-17T02:22:21.443Z,18.13
2017-10-17T02:25:06.583Z,16.17
2017-10-17T02:27:34.891Z,16.73
2017-10-17T02:32:55.472Z,17.33
2017-10-17T02:35:23.908Z,16.70
2017-10-17T02:37:51.445Z,17.80
2017-10-17T02:40:18.982Z,17.33
2017-10-17T02:42:46.573Z,17.30
2017-10-17T02:45:14.152Z,16.87
2017-10-17T02:47:41.673Z,17.83
2017-10-17T02:50:18.048Z,16.17
2017-10-17T02:52:45.654Z,16.10
2017-10-17T02:55:13.205Z,15.57
2017-10-17T02:57:40.843Z,16.37
2017-10-17T03:00:09.118Z,16.90
2017-10-17T03:02:40.443Z,17.47
2017-10-17T03:05:10.778Z,16.80
2017-10-17T03:07:38.316Z,17.50
2017-10-17T03:10:05.968Z,17.53
2017-10-17T03:12:34.293Z,16.10
2017-10-17T03:15:12.460Z,17.00
2017-10-17T03:17:40.435Z,17.43
2017-10-17T03:20:08.062Z,17.57
2017-10-17T03:22:35.619Z,16.47
2017-10-17T03:25:04.177Z,18.07
2017-10-17T03:27:32.448Z,16.67
2017-10-17T03:29:59.992Z,17.37
2017-10-17T03:32:27.555Z,17.37
2017-10-17T03:35:21.029Z,16.70
2017-10-17T03:37:49.497Z,15.53
2017-10-17T03:40:27.912Z,16.27
2017-10-17T03:43:03.409Z,15.80
2017-10-17T03:45:30.976Z,16.17
2017-10-17T03:48:00.143Z,15.87
2017-10-17T03:50:42.608Z,16.43
2017-10-17T03:56:07.891Z,18.40
2017-10-17T03:58:36.317Z,17.03
2017-10-17T04:01:04.413Z,19.23
2017-10-17T04:03:33.764Z,19.40
2017-10-17T04:06:06.970Z,18.57
2017-10-17T04:08:35.998Z,20.53
2017-10-17T04:11:07.436Z,21.10
2017-10-17T04:13:38.673Z,19.70
2017-10-17T04:16:26.573Z,21.00
2017-10-17T04:19:02.904Z,21.73
2017-10-17T04:24:45.622Z,22.77
2017-10-17T04:27:19.990Z,22.67
2017-10-17T04:33:08.224Z,22.60
2017-10-17T04:35:40.031Z,23.70
2017-10-17T04:38:09.764Z,23.37
2017-10-17T04:40:38.109Z,22.83
2017-10-17T04:43:29.198Z,21.30
2017-10-17T04:45:58.541Z,22.93
2017-10-17T04:48:36.864Z,22.50
2017-10-17T04:51:24.932Z,22.40
2017-10-17T04:54:00.402Z,23.50
2017-10-17T04:56:27.987Z,23.60
2017-10-17T04:59:07.379Z,25.67
2017-10-17T05:01:34.927Z,24.13
2017-10-17T05:07:27.113Z,23.67
2017-10-17T05:09:58.279Z,23.33
2017-10-17T05:12:25.802Z,25.20
2017-10-17T05:14:53.423Z,23.20
2017-10-17T05:17:28.243Z,23.40
2017-10-17T05:19:56.593Z,22.77
2017-10-17T05:22:41.081Z,22.87
2017-10-17T05:25:15.014Z,25.10
2017-10-17T05:31:06.436Z,23.30
2017-10-17T05:33:54.675Z,23.77
2017-10-17T05:36:45.764Z,23.07
2017-10-17T05:39:13.351Z,26.43
2017-10-17T05:41:41.079Z,24.23
2017-10-17T05:47:07.109Z,25.30
2017-10-17T05:49:41.006Z,23.70
2017-10-17T05:52:08.695Z,24.23
2017-10-17T05:54:36.263Z,25.50
2017-10-17T05:57:03.806Z,26.07
2017-10-17T05:59:31.312Z,24.70
2017-10-17T06:01:58.868Z,24.90
2017-10-17T06:04:26.589Z,23.53
2017-10-17T06:06:54.176Z,22.30
2017-10-17T06:09:22.122Z,21.27
2017-10-17T06:11:50.961Z,22.57
2017-10-17T06:14:18.540Z,21.63
2017-10-17T06:16:46.086Z,22.27
2017-10-17T06:19:13.640Z,21.10
2017-10-17T06:21:41.262Z,26.23
2017-10-17T06:24:08.860Z,23.80
2017-10-17T06:26:36.425Z,22.30
2017-10-17T06:29:03.938Z,22.80
2017-10-17T06:31:31.523Z,24.50
2017-10-17T06:33:59.811Z,25.13
2017-10-17T06:36:27.382Z,24.70
2017-10-17T06:38:54.901Z,22.30
2017-10-17T06:41:22.496Z,25.30
2017-10-17T06:43:50.039Z,23.93
2017-10-17T06:46:18.411Z,25.87
2017-10-17T06:48:46.712Z,25.70
2017-10-17T06:51:14.269Z,27.83
2017-10-17T06:53:41.906Z,27.17
2017-10-17T06:56:09.484Z,25.83
2017-10-17T06:58:37.058Z,24.87
2017-10-17T07:01:04.654Z,25.97
2017-10-17T07:03:32.348Z,28.40
2017-10-17T07:05:59.865Z,27.20
2017-10-17T07:08:27.430Z,29.07
2017-10-17T07:10:54.951Z,24.47
2017-10-17T07:13:22.526Z,25.70
2017-10-17T07:15:50.177Z,24.27
2017-10-17T07:18:17.693Z,23.77
2017-10-17T07:20:45.235Z,23.03
2017-10-17T07:23:12.775Z,23.33
2017-10-17T07:25:40.363Z,24.03
2017-10-17T07:28:07.908Z,23.13
2017-10-17T07:30:35.443Z,21.80
2017-10-17T07:33:03.019Z,21.33
2017-10-17T07:35:30.542Z,21.80
2017-10-17T07:37:58.128Z,22.20
2017-10-17T07:40:25.711Z,25.60
2017-10-17T07:42:54.030Z,24.40
2017-10-17T07:45:22.474Z,23.63
2017-10-17T07:47:50.047Z,25.80
2017-10-17T07:50:17.693Z,25.70
2017-10-17T07:52:46.082Z,24.80
2017-10-17T07:55:13.627Z,26.47
2017-10-17T07:57:41.231Z,25.53
2017-10-17T08:00:08.918Z,28.77
2017-10-17T08:02:36.504Z,29.20
2017-10-17T08:05:08.056Z,28.00
2017-10-17T08:07:35.642Z,32.13
2017-10-17T08:10:03.457Z,28.20
2017-10-17T08:12:31.154Z,29.40
2017-10-17T08:14:59.234Z,31.93
2017-10-17T08:17:26.864Z,31.43
2017-10-17T08:19:54.428Z,30.50
2017-10-17T08:22:22.019Z,34.07
2017-10-17T08:24:49.567Z,33.80
2017-10-17T08:27:17.996Z,31.93
2017-10-17T08:29:46.302Z,34.30
2017-10-17T08:32:13.843Z,35.37
2017-10-17T08:34:41.368Z,38.17
2017-10-17T08:37:09.008Z,36.67
2017-10-17T08:39:37.839Z,36.33
2017-10-17T08:42:05.473Z,36.67
2017-10-17T08:44:32.995Z,38.13
2017-10-17T08:47:00.563Z,36.87
2017-10-17T08:49:28.123Z,36.33
2017-10-17T08:51:55.679Z,36.23
2017-10-17T08:54:23.251Z,38.73
2017-10-17T08:56:50.814Z,37.07
2017-10-17T08:59:18.386Z,36.40
2017-10-17T09:01:45.927Z,37.50
2017-10-17T09:04:13.510Z,39.63
2017-10-17T09:06:41.050Z,39.53
2017-10-17T09:09:08.668Z,38.63
2017-10-17T09:11:36.972Z,37.20
2017-10-17T09:14:04.505Z,38.83
2017-10-17T09:16:34.956Z,38.20
2017-10-17T09:19:02.567Z,38.43
2017-10-17T09:21:31.564Z,39.63
2017-10-17T09:23:59.183Z,39.33
2017-10-17T09:26:26.732Z,39.30
2017-10-17T09:28:54.322Z,39.90
2017-10-17T09:31:21.863Z,39.57
2017-10-17T09:33:50.214Z,42.60
2017-10-17T09:36:17.824Z,41.20
2017-10-17T09:38:45.353Z,36.80
2017-10-17T09:41:12.892Z,42.70
2017-10-17T09:43:40.441Z,44.00
2017-10-17T09:46:08.950Z,44.10
2017-10-17T09:48:37.728Z,47.47
2017-10-17T09:51:05.276Z,46.73
2017-10-17T09:53:33.586Z,47.20
2017-10-17T09:56:01.309Z,46.13
2017-10-17T09:58:28.914Z,46.03
2017-10-17T10:00:56.630Z,46.00
2017-10-17T10:03:25.050Z,45.80
2017-10-17T10:05:52.683Z,47.83
2017-10-17T10:08:21.051Z,47.70
2017-10-17T10:10:48.635Z,48.97
2017-10-17T10:13:16.190Z,50.93
2017-10-17T10:15:43.759Z,50.00
2017-10-17T10:18:11.344Z,48.70
2017-10-17T10:20:38.956Z,52.90
2017-10-17T10:23:06.522Z,54.30
2017-10-17T10:25:34.848Z,53.97
2017-10-17T10:28:02.472Z,54.90
2017-10-17T10:30:30.049Z,58.00
2017-10-17T10:32:57.832Z,58.77
2017-10-17T10:35:25.340Z,56.83
2017-10-17T10:37:53.676Z,54.73
2017-10-17T10:40:21.381Z,56.23
2017-10-17T10:42:49.670Z,55.10
2017-10-17T10:45:17.225Z,59.67
2017-10-17T10:47:44.790Z,58.27
2017-10-17T10:50:12.780Z,57.80
2017-10-17T10:52:40.400Z,57.63
2017-10-17T10:55:08.728Z,57.77
2017-10-17T10:57:36.308Z,55.27
2017-10-17T11:00:04.966Z,56.07
2017-10-17T11:02:32.505Z,55.30
2017-10-17T11:05:00.064Z,55.47
2017-10-17T11:07:27.681Z,51.30
2017-10-17T11:09:55.249Z,55.40
2017-10-17T11:12:22.764Z,52.87
2017-10-17T11:14:50.341Z,49.57
2017-10-17T11:17:17.986Z,49.43
2017-10-17T11:19:45.577Z,50.40
2017-10-17T11:22:13.188Z,47.20
2017-10-17T11:24:40.852Z,48.43
2017-10-17T11:27:08.364Z,49.13
2017-10-17T11:29:35.900Z,46.37
2017-10-17T11:32:03.579Z,46.97
2017-10-17T11:34:31.688Z,46.70
2017-10-17T11:36:59.222Z,47.63
2017-10-17T11:39:26.837Z,47.53
2017-10-17T11:42:06.392Z,46.30
2017-10-17T11:44:33.983Z,46.10
2017-10-17T11:47:01.600Z,47.90
2017-10-17T11:49:29.233Z,48.73
2017-10-17T11:51:56.842Z,48.20
2017-10-17T11:54:24.403Z,42.53
2017-10-17T11:56:52.018Z,43.33
2017-10-17T11:59:20.299Z,43.57
2017-10-17T12:01:47.843Z,41.07
2017-10-17T12:04:16.273Z,43.60
2017-10-17T12:06:43.838Z,44.10
2017-10-17T12:09:11.454Z,44.40
2017-10-17T12:11:39.878Z,46.10
2017-10-17T12:14:07.482Z,46.53
2017-10-17T12:16:35.232Z,44.23
2017-10-17T12:19:02.818Z,43.90
2017-10-17T12:21:31.192Z,40.40
2017-10-17T12:23:59.080Z,44.03
2017-10-17T12:26:26.705Z,44.73
2017-10-17T12:28:54.249Z,43.17
2017-10-17T12:31:21.851Z,45.97
2017-10-17T12:33:49.463Z,45.53
2017-10-17T12:36:16.997Z,45.40
2017-10-17T12:38:44.963Z,42.67
2017-10-17T12:41:12.573Z,41.30
2017-10-17T12:43:40.197Z,43.10
2017-10-17T12:46:07.904Z,44.30
2017-10-17T12:48:35.798Z,42.60
2017-10-17T12:51:03.967Z,40.97
2017-10-17T12:53:32.325Z,42.93
2017-10-17T12:56:00.643Z,42.70
2017-10-17T12:58:28.184Z,42.20
2017-10-17T13:00:55.797Z,38.80
2017-10-17T13:03:23.443Z,39.27
2017-10-17T13:05:51.770Z,40.93
2017-10-17T13:08:20.174Z,41.77
2017-10-17T13:10:48.566Z,38.57
2017-10-17T13:13:16.201Z,38.30
2017-10-17T13:15:44.234Z,39.03
2017-10-17T13:18:11.819Z,38.53
2017-10-17T13:20:40.221Z,38.70
2017-10-17T13:23:07.785Z,37.27
2017-10-17T13:25:35.318Z,34.97
2017-10-17T13:28:03.628Z,35.43
2017-10-17T13:30:31.194Z,34.70
2017-10-17T13:32:58.800Z,32.97
2017-10-17T13:35:26.356Z,32.30
2017-10-17T13:37:53.903Z,33.43
2017-10-17T13:40:22.349Z,32.23
2017-10-17T13:42:49.901Z,33.20
2017-10-17T13:45:17.633Z,32.73
2017-10-17T13:47:45.180Z,30.00
2017-10-17T13:50:12.721Z,30.83
2017-10-17T13:52:40.291Z,28.80
2017-10-17T13:55:08.921Z,27.00
2017-10-17T13:57:36.488Z,25.23
2017-10-17T14:00:04.163Z,23.13
2017-10-17T14:02:31.720Z,20.23
2017-10-17T14:04:59.274Z,21.10
2017-10-17T14:07:26.814Z,18.00
2017-10-17T14:09:54.421Z,18.33
2017-10-17T14:12:22.051Z,16.63
2017-10-17T14:14:49.674Z,16.27
2017-10-17T14:17:17.235Z,16.07
2017-10-17T14:19:46.480Z,15.77
2017-10-17T14:22:14.052Z,16.40
2017-10-17T14:24:49.474Z,15.83
2017-10-17T14:27:33.772Z,16.00
2017-10-17T14:30:01.479Z,15.47
2017-10-17T14:32:35.427Z,14.30
2017-10-17T14:35:05.896Z,15.00
2017-10-17T14:37:36.757Z,14.37
2017-10-17T14:40:07.385Z,14.87
2017-10-17T14:42:36.509Z,14.67
2017-10-17T14:45:05.671Z,15.70
2017-10-17T14:47:34.176Z,13.17
2017-10-17T14:50:01.837Z,14.70
2017-10-17T14:52:29.576Z,14.60
2017-10-17T14:54:57.115Z,14.93
2017-10-17T14:57:24.653Z,15.43
2017-10-17T14:59:52.251Z,14.70
2017-10-17T15:02:20.587Z,16.00
2017-10-17T15:04:48.182Z,15.37
2017-10-17T15:07:15.717Z,14.40
2017-10-17T15:09:43.335Z,15.40
2017-10-17T15:12:10.927Z,15.10
2017-10-17T15:14:38.505Z,16.77
2017-10-17T15:17:06.902Z,16.47
2017-10-17T15:19:36.108Z,17.03
2017-10-17T15:22:04.435Z,17.93
2017-10-17T15:24:32.115Z,16.40
2017-10-17T15:26:59.679Z,16.30
2017-10-17T15:29:27.220Z,17.83
2017-10-17T15:31:54.762Z,16.70
2017-10-17T15:34:22.322Z,17.13
2017-10-17T15:36:49.909Z,17.07
2017-10-17T15:39:17.479Z,17.77
2017-10-17T15:41:45.062Z,18.10
2017-10-17T15:44:12.605Z,20.03
2017-10-17T15:46:40.209Z,19.30
2017-10-17T15:49:08.527Z,19.73
2017-10-17T15:51:36.144Z,20.87
2017-10-17T15:54:04.952Z,20.67
2017-10-17T15:56:32.614Z,21.60
2017-10-17T15:59:01.794Z,22.20
2017-10-17T16:01:29.371Z,21.63
2017-10-17T16:03:56.947Z,22.40
2017-10-17T16:06:24.575Z,20.47
2017-10-17T16:08:52.246Z,21.27
2017-10-17T16:11:19.924Z,21.23
2017-10-17T16:13:49.226Z,21.20
2017-10-17T16:16:16.856Z,22.77
2017-10-17T16:18:44.747Z,23.80
2017-10-17T16:21:12.439Z,22.90
2017-10-17T16:23:40.003Z,21.47
2017-10-17T16:26:08.634Z,23.93
2017-10-17T16:28:37.545Z,23.83
2017-10-17T16:31:05.140Z,23.77
2017-10-17T16:33:32.786Z,23.70
2017-10-17T16:36:00.530Z,21.20
2017-10-17T16:38:28.322Z,24.17
2017-10-17T16:40:56.453Z,21.53
2017-10-17T16:43:24.139Z,24.33
2017-10-17T16:45:51.742Z,22.20
2017-10-17T16:48:19.391Z,23.07
2017-10-17T16:50:47.040Z,23.60
2017-10-17T16:53:15.741Z,23.37
2017-10-17T16:55:43.603Z,22.63
2017-10-17T16:58:11.928Z,24.40
2017-10-17T17:00:39.756Z,23.13
2017-10-17T17:03:16.120Z,23.00
2017-10-17T17:05:43.707Z,22.73
2017-10-17T17:08:16.062Z,25.10
2017-10-17T17:10:43.674Z,24.20
2017-10-17T17:13:12.370Z,24.20
2017-10-17T17:15:39.944Z,24.20
2017-10-17T17:18:07.552Z,23.37
2017-10-17T17:20:35.169Z,24.70
2017-10-17T17:23:02.765Z,25.50
2017-10-17T17:25:30.399Z,25.50
2017-10-17T17:27:58.681Z,26.03
2017-10-17T17:30:26.306Z,26.63
2017-10-17T17:32:53.955Z,26.10
2017-10-17T17:35:22.361Z,25.63
2017-10-17T17:37:50.869Z,25.47
2017-10-17T17:40:18.941Z,27.07
2017-10-17T17:42:46.649Z,25.03
2017-10-17T17:45:14.275Z,26.43
2017-10-17T17:47:42.278Z,23.60
2017-10-17T17:50:09.883Z,25.83
2017-10-17T17:52:37.515Z,26.60
2017-10-17T17:55:05.338Z,25.87
2017-10-17T17:57:33.010Z,26.33
2017-10-17T18:00:01.539Z,26.13
2017-10-17T18:02:30.665Z,25.57
2017-10-17T18:04:58.222Z,24.57
2017-10-17T18:07:25.851Z,27.10
2017-10-17T18:09:54.067Z,25.67
2017-10-17T18:12:21.642Z,27.13
2017-10-17T18:14:51.056Z,27.83
2017-10-17T18:17:19.875Z,29.20
2017-10-17T18:19:50.620Z,32.70
2017-10-17T18:22:30.718Z,31.83
2017-10-17T18:25:00.076Z,37.03
2017-10-17T18:27:34.692Z,33.43
2017-10-17T18:38:41.050Z,27.60
2017-10-17T18:53:59.162Z,20.80
2017-10-17T18:56:27.777Z,19.20
2017-10-17T19:02:24.833Z,20.10
2017-10-17T19:05:05.024Z,19.50
2017-10-17T19:07:53.556Z,19.83
2017-10-17T19:10:59.934Z,19.10
2017-10-17T19:16:40.601Z,17.30
2017-10-17T19:22:35.930Z,18.40
2017-10-17T19:25:06.797Z,18.47
2017-10-17T19:27:37.709Z,18.33
2017-10-17T19:33:06.982Z,18.50
2017-10-17T19:35:36.036Z,19.10
2017-10-17T19:38:05.880Z,18.07
2017-10-17T19:41:07.168Z,17.07
2017-10-17T19:48:36.696Z,16.83
2017-10-17T19:51:07.496Z,19.40
2017-10-17T20:09:41.393Z,19.10
2017-10-17T20:25:09.169Z,19.50
2017-10-17T20:37:16.830Z,19.83
2017-10-17T20:39:45.399Z,22.07
2017-10-17T20:51:53.814Z,20.27
2017-10-17T20:54:26.514Z,21.07
2017-10-17T20:56:55.136Z,19.20
2017-10-17T20:59:24.887Z,19.70
2017-10-17T21:01:53.802Z,19.80
2017-10-17T21:04:22.653Z,20.90
2017-10-17T21:06:56.565Z,21.00
2017-10-17T21:09:24.943Z,21.13
2017-10-17T21:11:53.544Z,21.00
2017-10-17T21:14:21.488Z,22.10
2017-10-17T21:16:49.914Z,20.07
2017-10-17T21:19:17.475Z,22.80
2017-10-17T21:21:46.333Z,22.00
2017-10-17T21:24:13.956Z,21.33
2017-10-17T21:26:46.611Z,21.37
2017-10-17T21:29:23.172Z,20.90
2017-10-17T21:31:51.840Z,21.50
2017-10-17T21:34:19.685Z,24.30
2017-10-17T21:36:48.521Z,21.50
2017-10-17T21:39:16.779Z,23.23
2017-10-17T21:41:44.665Z,21.30
2017-10-17T21:44:12.210Z,21.43
2017-10-17T21:46:41.335Z,22.23
2017-10-17T21:49:09.015Z,23.23
2017-10-17T21:51:38.518Z,23.10
2017-10-17T21:54:06.091Z,23.40
2017-10-17T21:56:35.952Z,23.20
2017-10-17T21:59:03.512Z,23.23
2017-10-17T22:01:31.077Z,23.20
2017-10-17T22:03:59.120Z,23.97
2017-10-17T22:06:26.723Z,24.50
2017-10-17T22:08:54.243Z,23.87
2017-10-17T22:11:22.378Z,23.50
2017-10-17T22:13:50.713Z,22.40
2017-10-17T22:16:18.360Z,22.87
2017-10-17T22:18:46.172Z,22.97
2017-10-17T22:21:13.675Z,22.40
2017-10-17T22:23:43.768Z,22.17
2017-10-17T22:26:12.405Z,22.33
2017-10-17T22:28:43.155Z,23.23
2017-10-17T22:31:13.042Z,23.73
2017-10-17T22:33:42.231Z,23.90
2017-10-17T22:45:49.911Z,23.50
2017-10-17T22:48:17.534Z,23.73
2017-10-17T22:50:45.899Z,24.00
2017-10-17T22:53:13.452Z,25.47
2017-10-17T22:55:40.981Z,23.53
2017-10-17T22:58:08.549Z,24.87
2017-10-17T23:00:36.122Z,26.00
2017-10-17T23:03:03.845Z,26.60
2017-10-17T23:05:32.245Z,26.00
2017-10-17T23:08:00.540Z,28.00
2017-10-17T23:10:29.365Z,27.30
2017-10-17T23:12:56.973Z,27.73
2017-10-17T23:15:26.990Z,27.00
2017-10-17T23:18:06.470Z,25.93
2017-10-17T23:20:38.592Z,26.43
2017-10-17T23:23:06.414Z,25.80
2017-10-17T23:25:34.550Z,25.20
2017-10-17T23:28:02.087Z,27.87
2017-10-17T23:30:30.117Z,26.57
2017-10-17T23:32:59.105Z,28.77
2017-10-17T23:35:26.779Z,27.97
2017-10-17T23:37:56.433Z,26.63
2017-10-17T23:40:24.072Z,26.73
2017-10-17T23:42:51.963Z,27.70
2017-10-17T23:45:22.225Z,28.23
2017-10-17T23:47:50.375Z,27.70
2017-10-17T23:50:18.663Z,27.20
2017-10-17T23:52:46.721Z,29.87
2017-10-17T23:55:14.762Z,29.20
2017-10-17T23:57:43.337Z,28.23
